EZS79KV LIPZ-LSGG
Flight info
| Callsign | EZS79KV |
|---|---|
| Flight time | 0h 58m |
| Altitude | 31000 |
| Route | VIC DCT ADOSA DCT VAKON/N0426F320 DCT SRN DCT OMETO DCT AOSTA/N0357F220 L615 BANKO |
| Aircraft | A320/M-SDE2E3FGHIJ1RWXYZ/LB1 |
Departure
| Time | 2026-05-06 12:00 |
|---|---|
| Airport | Venice Marco Polo Airport (LIPZ) |
Arrival
| Time | 2026-05-06 12:59 |
|---|---|
| Airport | Geneva International Airport (LSGG) |
| Time | Latitude | Longitude | Altitude | Speed | Heading |
|---|---|---|---|---|---|
| 2026-05-06 11:37 | 45.50840 | 12.34538 | 16 ft | 0 kts | 44° |
| 2026-05-06 11:49 | 45.50838 | 12.34536 | 15 ft | 2 kts | 44° |
| 2026-05-06 11:49 | 45.50821 | 12.34509 | 15 ft | 4 kts | 56° |
| 2026-05-06 11:49 | 45.50810 | 12.34476 | 15 ft | 4 kts | 91° |
| 2026-05-06 11:50 | 45.50815 | 12.34454 | 15 ft | 0 kts | 131° |
| 2026-05-06 11:54 | 45.50814 | 12.34455 | 15 ft | 1 kts | 131° |
| 2026-05-06 11:55 | 45.50793 | 12.34488 | 16 ft | 8 kts | 131° |
| 2026-05-06 11:55 | 45.50744 | 12.34563 | 15 ft | 12 kts | 133° |
| 2026-05-06 11:55 | 45.50685 | 12.34649 | 15 ft | 11 kts | 144° |
| 2026-05-06 11:55 | 45.50612 | 12.34693 | 17 ft | 12 kts | 160° |
| 2026-05-06 11:56 | 45.50530 | 12.34657 | 18 ft | 14 kts | 221° |
| 2026-05-06 11:56 | 45.50455 | 12.34561 | 16 ft | 17 kts | 221° |
| 2026-05-06 11:56 | 45.50364 | 12.34443 | 16 ft | 18 kts | 222° |
| 2026-05-06 11:56 | 45.50265 | 12.34318 | 16 ft | 20 kts | 223° |
| 2026-05-06 11:57 | 45.50160 | 12.34182 | 16 ft | 21 kts | 221° |
| 2026-05-06 11:57 | 45.50046 | 12.34036 | 15 ft | 23 kts | 222° |
| 2026-05-06 11:57 | 45.49927 | 12.33881 | 16 ft | 24 kts | 222° |
| 2026-05-06 11:57 | 45.49801 | 12.33720 | 16 ft | 25 kts | 222° |
| 2026-05-06 11:58 | 45.49690 | 12.33618 | 18 ft | 15 kts | 210° |
| 2026-05-06 11:58 | 45.49612 | 12.33528 | 16 ft | 10 kts | 212° |
| 2026-05-06 11:58 | 45.49557 | 12.33532 | 17 ft | 7 kts | 141° |
| 2026-05-06 11:58 | 45.49547 | 12.33592 | 17 ft | 6 kts | 80° |
| 2026-05-06 11:59 | 45.49568 | 12.33630 | 17 ft | 3 kts | 41° |
| 2026-05-06 11:59 | 45.49570 | 12.33632 | 17 ft | 0 kts | 41° |
| 2026-05-06 11:59 | 45.49586 | 12.33651 | 16 ft | 14 kts | 41° |
| 2026-05-06 11:59 | 45.49858 | 12.34000 | 16 ft | 88 kts | 42° |
| 2026-05-06 12:00 | 45.50458 | 12.34768 | 16 ft | 144 kts | 42° |
| 2026-05-06 12:00 | 45.51313 | 12.35862 | 222 ft | 173 kts | 45° |
| 2026-05-06 12:00 | 45.52209 | 12.36999 | 846 ft | 177 kts | 41° |
| 2026-05-06 12:00 | 45.53295 | 12.37832 | 1448 ft | 184 kts | 12° |
| 2026-05-06 12:01 | 45.54570 | 12.37750 | 1753 ft | 201 kts | 338° |
| 2026-05-06 12:01 | 45.55776 | 12.36622 | 2007 ft | 217 kts | 306° |
| 2026-05-06 12:01 | 45.56423 | 12.34685 | 2544 ft | 218 kts | 275° |
| 2026-05-06 12:01 | 45.56295 | 12.32587 | 3374 ft | 211 kts | 245° |
| 2026-05-06 12:02 | 45.55450 | 12.30921 | 4149 ft | 210 kts | 215° |
| 2026-05-06 12:02 | 45.54082 | 12.30175 | 4894 ft | 214 kts | 193° |
| 2026-05-06 12:02 | 45.53109 | 12.29890 | 5384 ft | 215 kts | 193° |
| 2026-05-06 12:02 | 45.51636 | 12.29474 | 6142 ft | 217 kts | 194° |
| 2026-05-06 12:03 | 45.50145 | 12.29052 | 6871 ft | 219 kts | 194° |
| 2026-05-06 12:03 | 45.48643 | 12.28620 | 7603 ft | 221 kts | 194° |
| 2026-05-06 12:03 | 45.47133 | 12.28184 | 8367 ft | 222 kts | 194° |
| 2026-05-06 12:03 | 45.45612 | 12.27740 | 9140 ft | 223 kts | 196° |
| 2026-05-06 12:04 | 45.44186 | 12.26917 | 9884 ft | 222 kts | 213° |
| 2026-05-06 12:04 | 45.42989 | 12.25531 | 10601 ft | 223 kts | 221° |
| 2026-05-06 12:04 | 45.41840 | 12.24054 | 11625 ft | 224 kts | 220° |
| 2026-05-06 12:04 | 45.40670 | 12.22569 | 12592 ft | 227 kts | 219° |
| 2026-05-06 12:05 | 45.39497 | 12.21043 | 13499 ft | 232 kts | 226° |
| 2026-05-06 12:05 | 45.38778 | 12.19002 | 14252 ft | 244 kts | 257° |
| 2026-05-06 12:05 | 45.39041 | 12.16573 | 14910 ft | 261 kts | 292° |
| 2026-05-06 12:05 | 45.40123 | 12.14435 | 15528 ft | 270 kts | 302° |
| 2026-05-06 12:06 | 45.41127 | 12.12223 | 16128 ft | 263 kts | 286° |
| 2026-05-06 12:06 | 45.41591 | 12.09753 | 16785 ft | 257 kts | 268° |
| 2026-05-06 12:06 | 45.41434 | 12.07179 | 16953 ft | 268 kts | 248° |
| 2026-05-06 12:06 | 45.40679 | 12.04667 | 17076 ft | 287 kts | 240° |
| 2026-05-06 12:07 | 45.39782 | 12.02015 | 17229 ft | 308 kts | 241° |
| 2026-05-06 12:07 | 45.39037 | 11.99065 | 17355 ft | 331 kts | 257° |
| 2026-05-06 12:07 | 45.39241 | 11.95700 | 17666 ft | 357 kts | 284° |
| 2026-05-06 12:07 | 45.40562 | 11.92630 | 18153 ft | 377 kts | 308° |
| 2026-05-06 12:08 | 45.42529 | 11.90086 | 18638 ft | 386 kts | 315° |
| 2026-05-06 12:08 | 45.44669 | 11.87734 | 19164 ft | 391 kts | 318° |
| 2026-05-06 12:08 | 45.46893 | 11.85485 | 19734 ft | 394 kts | 319° |
| 2026-05-06 12:08 | 45.49144 | 11.83246 | 20296 ft | 397 kts | 319° |
| 2026-05-06 12:09 | 45.51405 | 11.80958 | 20892 ft | 399 kts | 318° |
| 2026-05-06 12:09 | 45.53658 | 11.78611 | 21425 ft | 400 kts | 317° |
| 2026-05-06 12:09 | 45.55891 | 11.76222 | 21948 ft | 402 kts | 316° |
| 2026-05-06 12:09 | 45.58124 | 11.73791 | 22417 ft | 406 kts | 315° |
| 2026-05-06 12:10 | 45.60166 | 11.71122 | 22832 ft | 399 kts | 303° |
| 2026-05-06 12:10 | 45.61795 | 11.67965 | 23290 ft | 392 kts | 292° |
| 2026-05-06 12:10 | 45.62977 | 11.64451 | 23742 ft | 384 kts | 282° |
| 2026-05-06 12:10 | 45.63658 | 11.60846 | 24168 ft | 377 kts | 272° |
| 2026-05-06 12:11 | 45.63873 | 11.57145 | 24567 ft | 372 kts | 264° |
| 2026-05-06 12:11 | 45.63916 | 11.53441 | 24957 ft | 374 kts | 264° |
| 2026-05-06 12:11 | 45.63960 | 11.49722 | 25356 ft | 375 kts | 264° |
| 2026-05-06 12:11 | 45.64004 | 11.45979 | 25749 ft | 377 kts | 264° |
| 2026-05-06 12:12 | 45.64050 | 11.42232 | 26134 ft | 378 kts | 264° |
| 2026-05-06 12:12 | 45.64094 | 11.38465 | 26501 ft | 380 kts | 264° |
| 2026-05-06 12:12 | 45.64136 | 11.34684 | 26836 ft | 381 kts | 264° |
| 2026-05-06 12:12 | 45.64177 | 11.30878 | 27210 ft | 383 kts | 264° |
| 2026-05-06 12:13 | 45.64216 | 11.27064 | 27562 ft | 385 kts | 264° |
| 2026-05-06 12:13 | 45.64254 | 11.23228 | 27862 ft | 387 kts | 264° |
| 2026-05-06 12:13 | 45.64292 | 11.19382 | 28256 ft | 388 kts | 264° |
| 2026-05-06 12:13 | 45.64329 | 11.15516 | 28632 ft | 390 kts | 264° |
| 2026-05-06 12:14 | 45.64362 | 11.11645 | 29034 ft | 391 kts | 264° |
| 2026-05-06 12:14 | 45.64394 | 11.07742 | 29376 ft | 393 kts | 264° |
| 2026-05-06 12:14 | 45.64395 | 11.03834 | 29730 ft | 392 kts | 260° |
| 2026-05-06 12:14 | 45.64035 | 11.00007 | 30080 ft | 387 kts | 252° |
| 2026-05-06 12:15 | 45.63450 | 10.96309 | 30371 ft | 387 kts | 252° |
| 2026-05-06 12:15 | 45.62848 | 10.92498 | 30633 ft | 388 kts | 252° |
| 2026-05-06 12:15 | 45.62260 | 10.88787 | 30843 ft | 388 kts | 252° |
| 2026-05-06 12:15 | 45.61672 | 10.85062 | 30898 ft | 378 kts | 252° |
| 2026-05-06 12:16 | 45.61108 | 10.81470 | 30893 ft | 365 kts | 252° |
| 2026-05-06 12:16 | 45.60553 | 10.77968 | 30898 ft | 360 kts | 251° |
| 2026-05-06 12:16 | 45.59436 | 10.71020 | 30899 ft | 358 kts | 251° |
| 2026-05-06 12:17 | 45.58316 | 10.64092 | 30895 ft | 358 kts | 251° |
| 2026-05-06 12:17 | 45.57202 | 10.57163 | 30921 ft | 358 kts | 251° |
| 2026-05-06 12:18 | 45.56094 | 10.50279 | 30888 ft | 355 kts | 251° |
| 2026-05-06 12:18 | 45.54977 | 10.43426 | 30883 ft | 354 kts | 251° |
| 2026-05-06 12:19 | 45.53854 | 10.36580 | 30884 ft | 354 kts | 251° |
| 2026-05-06 12:19 | 45.52732 | 10.29734 | 30856 ft | 355 kts | 251° |
| 2026-05-06 12:20 | 45.51610 | 10.22888 | 30854 ft | 354 kts | 251° |
| 2026-05-06 12:20 | 45.50489 | 10.16097 | 30859 ft | 354 kts | 251° |
| 2026-05-06 12:21 | 45.49355 | 10.09266 | 30869 ft | 354 kts | 251° |
| 2026-05-06 12:21 | 45.48279 | 10.02401 | 30862 ft | 358 kts | 256° |
| 2026-05-06 12:22 | 45.48641 | 9.95194 | 30854 ft | 377 kts | 275° |
| 2026-05-06 12:22 | 45.49931 | 9.87957 | 30866 ft | 377 kts | 275° |
| 2026-05-06 12:23 | 45.51201 | 9.80715 | 30868 ft | 376 kts | 275° |
| 2026-05-06 12:23 | 45.52461 | 9.73468 | 30895 ft | 377 kts | 275° |
| 2026-05-06 12:24 | 45.53094 | 9.69832 | 31050 ft | 378 kts | 275° |
| 2026-05-06 12:24 | 45.53723 | 9.66191 | 31068 ft | 378 kts | 275° |
| 2026-05-06 12:24 | 45.54966 | 9.58919 | 31073 ft | 377 kts | 274° |
| 2026-05-06 12:25 | 45.56211 | 9.51666 | 31064 ft | 376 kts | 274° |
| 2026-05-06 12:25 | 45.57446 | 9.44464 | 31062 ft | 376 kts | 274° |
| 2026-05-06 12:26 | 45.58691 | 9.37200 | 30890 ft | 378 kts | 274° |
| 2026-05-06 12:26 | 45.59936 | 9.29882 | 30856 ft | 380 kts | 275° |
| 2026-05-06 12:27 | 45.61182 | 9.22548 | 30842 ft | 381 kts | 274° |
| 2026-05-06 12:27 | 45.62421 | 9.15192 | 30838 ft | 381 kts | 274° |
| 2026-05-06 12:28 | 45.63652 | 9.07811 | 30840 ft | 382 kts | 274° |
| 2026-05-06 12:28 | 45.64768 | 9.00410 | 30847 ft | 377 kts | 269° |
| 2026-05-06 12:29 | 45.65489 | 8.92980 | 30819 ft | 378 kts | 269° |
| 2026-05-06 12:29 | 45.66205 | 8.85529 | 30817 ft | 379 kts | 269° |
| 2026-05-06 12:30 | 45.66914 | 8.78068 | 30816 ft | 379 kts | 269° |
| 2026-05-06 12:30 | 45.67621 | 8.70582 | 30818 ft | 380 kts | 269° |
| 2026-05-06 12:31 | 45.68328 | 8.63106 | 30862 ft | 379 kts | 269° |
| 2026-05-06 12:31 | 45.69020 | 8.55666 | 30848 ft | 380 kts | 268° |
| 2026-05-06 12:32 | 45.69709 | 8.48166 | 30838 ft | 380 kts | 269° |
| 2026-05-06 12:32 | 45.70404 | 8.40673 | 30839 ft | 380 kts | 269° |
| 2026-05-06 12:33 | 45.71091 | 8.33184 | 30837 ft | 380 kts | 268° |
| 2026-05-06 12:33 | 45.71767 | 8.25675 | 30838 ft | 380 kts | 268° |
| 2026-05-06 12:34 | 45.72436 | 8.18148 | 30868 ft | 383 kts | 269° |
| 2026-05-06 12:34 | 45.73109 | 8.10610 | 30847 ft | 382 kts | 269° |
| 2026-05-06 12:35 | 45.73775 | 8.03114 | 30839 ft | 381 kts | 269° |
| 2026-05-06 12:35 | 45.74437 | 7.95586 | 30837 ft | 381 kts | 269° |
| 2026-05-06 12:36 | 45.75101 | 7.88070 | 30841 ft | 382 kts | 269° |
| 2026-05-06 12:36 | 45.75756 | 7.80517 | 30864 ft | 383 kts | 269° |
| 2026-05-06 12:37 | 45.76408 | 7.72936 | 30853 ft | 384 kts | 269° |
| 2026-05-06 12:37 | 45.77060 | 7.65359 | 30845 ft | 384 kts | 269° |
| 2026-05-06 12:38 | 45.77709 | 7.57759 | 30837 ft | 384 kts | 269° |
| 2026-05-06 12:38 | 45.78353 | 7.50154 | 30845 ft | 385 kts | 269° |
| 2026-05-06 12:39 | 45.78672 | 7.46366 | 30714 ft | 381 kts | 269° |
| 2026-05-06 12:39 | 45.78988 | 7.42629 | 30353 ft | 376 kts | 269° |
| 2026-05-06 12:39 | 45.79297 | 7.38925 | 29914 ft | 373 kts | 269° |
| 2026-05-06 12:39 | 45.79601 | 7.35258 | 29432 ft | 369 kts | 269° |
| 2026-05-06 12:40 | 45.79901 | 7.31616 | 28989 ft | 366 kts | 269° |
| 2026-05-06 12:40 | 45.80195 | 7.28015 | 28554 ft | 361 kts | 269° |
| 2026-05-06 12:40 | 45.80485 | 7.24470 | 28129 ft | 356 kts | 269° |
| 2026-05-06 12:40 | 45.80770 | 7.20970 | 27710 ft | 350 kts | 269° |
| 2026-05-06 12:41 | 45.81043 | 7.17576 | 27303 ft | 345 kts | 269° |
| 2026-05-06 12:41 | 45.81318 | 7.14138 | 26874 ft | 340 kts | 270° |
| 2026-05-06 12:41 | 45.81583 | 7.10841 | 26469 ft | 336 kts | 270° |
| 2026-05-06 12:41 | 45.81932 | 7.07531 | 26062 ft | 339 kts | 278° |
| 2026-05-06 12:42 | 45.82716 | 7.04329 | 25628 ft | 344 kts | 290° |
| 2026-05-06 12:42 | 45.83959 | 7.01373 | 25177 ft | 349 kts | 300° |
| 2026-05-06 12:42 | 45.85340 | 6.98515 | 24725 ft | 349 kts | 300° |
| 2026-05-06 12:42 | 45.86718 | 6.95638 | 24252 ft | 350 kts | 300° |
| 2026-05-06 12:43 | 45.88092 | 6.92752 | 23794 ft | 350 kts | 300° |
| 2026-05-06 12:43 | 45.89464 | 6.89860 | 23302 ft | 351 kts | 300° |
| 2026-05-06 12:43 | 45.90838 | 6.86962 | 22787 ft | 351 kts | 300° |
| 2026-05-06 12:43 | 45.92209 | 6.84071 | 22320 ft | 350 kts | 300° |
| 2026-05-06 12:44 | 45.93576 | 6.81188 | 21836 ft | 349 kts | 300° |
| 2026-05-06 12:44 | 45.94939 | 6.78315 | 21432 ft | 347 kts | 300° |
| 2026-05-06 12:44 | 45.96291 | 6.75463 | 21007 ft | 346 kts | 300° |
| 2026-05-06 12:44 | 45.97630 | 6.72600 | 20589 ft | 344 kts | 300° |
| 2026-05-06 12:45 | 45.98961 | 6.69727 | 20147 ft | 345 kts | 300° |
| 2026-05-06 12:45 | 46.00287 | 6.66854 | 19723 ft | 344 kts | 300° |
| 2026-05-06 12:45 | 46.02925 | 6.61128 | 18885 ft | 343 kts | 300° |
| 2026-05-06 12:46 | 46.04225 | 6.58304 | 18469 ft | 342 kts | 300° |
| 2026-05-06 12:46 | 46.05556 | 6.55418 | 18019 ft | 342 kts | 300° |
| 2026-05-06 12:46 | 46.06879 | 6.52592 | 17572 ft | 339 kts | 301° |
| 2026-05-06 12:46 | 46.08186 | 6.49832 | 17181 ft | 337 kts | 301° |
| 2026-05-06 12:47 | 46.09504 | 6.47057 | 16783 ft | 335 kts | 301° |
| 2026-05-06 12:47 | 46.10820 | 6.44286 | 16380 ft | 334 kts | 301° |
| 2026-05-06 12:47 | 46.12130 | 6.41517 | 15985 ft | 333 kts | 301° |
| 2026-05-06 12:47 | 46.13431 | 6.38761 | 15606 ft | 331 kts | 301° |
| 2026-05-06 12:48 | 46.14719 | 6.36029 | 15209 ft | 329 kts | 301° |
| 2026-05-06 12:48 | 46.16003 | 6.33310 | 14755 ft | 329 kts | 303° |
| 2026-05-06 12:48 | 46.17604 | 6.30989 | 14399 ft | 331 kts | 324° |
| 2026-05-06 12:48 | 46.19741 | 6.29829 | 13986 ft | 328 kts | 351° |
| 2026-05-06 12:49 | 46.21952 | 6.30052 | 13658 ft | 320 kts | 14° |
| 2026-05-06 12:49 | 46.23928 | 6.31563 | 13077 ft | 320 kts | 39° |
| 2026-05-06 12:49 | 46.25494 | 6.33773 | 12427 ft | 319 kts | 44° |
| 2026-05-06 12:49 | 46.27047 | 6.36071 | 12022 ft | 319 kts | 44° |
| 2026-05-06 12:50 | 46.28593 | 6.38374 | 11591 ft | 321 kts | 44° |
| 2026-05-06 12:50 | 46.30131 | 6.40662 | 11407 ft | 314 kts | 44° |
| 2026-05-06 12:50 | 46.31659 | 6.42925 | 10787 ft | 316 kts | 45° |
| 2026-05-06 12:50 | 46.33188 | 6.45199 | 10306 ft | 313 kts | 45° |
| 2026-05-06 12:51 | 46.34683 | 6.47431 | 9911 ft | 304 kts | 45° |
| 2026-05-06 12:51 | 46.36136 | 6.49589 | 9616 ft | 296 kts | 45° |
| 2026-05-06 12:51 | 46.37602 | 6.51600 | 9475 ft | 284 kts | 32° |
| 2026-05-06 12:51 | 46.39371 | 6.52593 | 9326 ft | 267 kts | 1° |
| 2026-05-06 12:52 | 46.41167 | 6.52284 | 9028 ft | 260 kts | 333° |
| 2026-05-06 12:52 | 46.42690 | 6.50936 | 8681 ft | 253 kts | 313° |
| 2026-05-06 12:52 | 46.43815 | 6.49014 | 8266 ft | 249 kts | 296° |
| 2026-05-06 12:52 | 46.44486 | 6.46673 | 7584 ft | 255 kts | 279° |
| 2026-05-06 12:53 | 46.44592 | 6.44113 | 7113 ft | 254 kts | 261° |
| 2026-05-06 12:53 | 46.44139 | 6.41675 | 6824 ft | 249 kts | 247° |
| 2026-05-06 12:53 | 46.43212 | 6.39570 | 6527 ft | 249 kts | 230° |
| 2026-05-06 12:53 | 46.42010 | 6.37778 | 6204 ft | 247 kts | 229° |
| 2026-05-06 12:54 | 46.40834 | 6.36032 | 5856 ft | 243 kts | 228° |
| 2026-05-06 12:54 | 46.39662 | 6.34293 | 5538 ft | 239 kts | 228° |
| 2026-05-06 12:54 | 46.38502 | 6.32574 | 5227 ft | 237 kts | 227° |
| 2026-05-06 12:54 | 46.37351 | 6.30869 | 4913 ft | 238 kts | 227° |
| 2026-05-06 12:55 | 46.36195 | 6.29159 | 4588 ft | 235 kts | 227° |
| 2026-05-06 12:55 | 46.35068 | 6.27491 | 4268 ft | 229 kts | 226° |
| 2026-05-06 12:55 | 46.33967 | 6.25866 | 3961 ft | 222 kts | 227° |
| 2026-05-06 12:55 | 46.32911 | 6.24306 | 3665 ft | 213 kts | 225° |
| 2026-05-06 12:56 | 46.31896 | 6.22808 | 3390 ft | 202 kts | 225° |
| 2026-05-06 12:56 | 46.30936 | 6.21392 | 3147 ft | 188 kts | 225° |
| 2026-05-06 12:56 | 46.30071 | 6.20116 | 2869 ft | 168 kts | 224° |
| 2026-05-06 12:56 | 46.29295 | 6.18972 | 2670 ft | 150 kts | 224° |
| 2026-05-06 12:57 | 46.28596 | 6.17942 | 2443 ft | 139 kts | 224° |
| 2026-05-06 12:57 | 46.28151 | 6.17287 | 2311 ft | 138 kts | 223° |
| 2026-05-06 12:57 | 46.27487 | 6.16309 | 2110 ft | 134 kts | 225° |
| 2026-05-06 12:57 | 46.26844 | 6.15348 | 1906 ft | 133 kts | 224° |
| 2026-05-06 12:58 | 46.26197 | 6.14403 | 1733 ft | 133 kts | 225° |
| 2026-05-06 12:58 | 46.25344 | 6.13141 | 1527 ft | 133 kts | 224° |
| 2026-05-06 12:58 | 46.24904 | 6.12502 | 1409 ft | 132 kts | 225° |
| 2026-05-06 12:58 | 46.24335 | 6.11671 | 1385 ft | 87 kts | 226° |
| 2026-05-06 12:59 | 46.24108 | 6.11340 | 1387 ft | 21 kts | 225° |
| 2026-05-06 12:59 | 46.24009 | 6.11196 | 1398 ft | 19 kts | 225° |
| 2026-05-06 12:59 | 46.23911 | 6.11082 | 1398 ft | 16 kts | 202° |
| 2026-05-06 12:59 | 46.23816 | 6.11074 | 1391 ft | 12 kts | 171° |
| 2026-05-06 13:00 | 46.23746 | 6.11088 | 1390 ft | 10 kts | 177° |
| 2026-05-06 13:00 | 46.23677 | 6.11069 | 1388 ft | 10 kts | 174° |
| 2026-05-06 13:00 | 46.23623 | 6.11134 | 1387 ft | 10 kts | 134° |
| 2026-05-06 13:00 | 46.23580 | 6.11194 | 1388 ft | 7 kts | 134° |
| 2026-05-06 13:01 | 46.23550 | 6.11238 | 1388 ft | 5 kts | 134° |
| 2026-05-06 13:01 | 46.23531 | 6.11265 | 1388 ft | 0 kts | 135° |